createdAt,value
2022-11-16T00:02:41.411Z,8.40
2022-11-16T00:05:43.169Z,8.40
2022-11-16T00:09:06.313Z,8.30
2022-11-16T00:12:10.607Z,8.30
2022-11-16T00:15:15.179Z,8.30
2022-11-16T00:18:17.106Z,8.30
2022-11-16T00:21:18.719Z,8.20
2022-11-16T00:24:21.258Z,8.20
2022-11-16T00:27:22.976Z,8.10
2022-11-16T00:30:24.613Z,8.00
2022-11-16T00:33:26.422Z,8.10
2022-11-16T00:36:28.193Z,8.20
2022-11-16T00:39:30.133Z,8.20
2022-11-16T00:42:32.118Z,8.30
2022-11-16T00:45:33.817Z,8.40
2022-11-16T00:48:35.942Z,8.50
2022-11-16T00:51:37.916Z,8.60
2022-11-16T00:54:39.541Z,8.60
2022-11-16T00:57:41.502Z,8.60
2022-11-16T01:00:43.363Z,8.60
2022-11-16T01:03:45.934Z,8.50
2022-11-16T01:06:47.633Z,8.40
2022-11-16T01:09:49.388Z,8.40
2022-11-16T01:12:51.285Z,8.30
2022-11-16T01:15:52.923Z,8.20
2022-11-16T01:18:55.272Z,8.10
2022-11-16T01:21:57.029Z,8.00
2022-11-16T01:24:58.644Z,8.00
2022-11-16T01:28:00.588Z,7.80
2022-11-16T01:31:02.361Z,7.80
2022-11-16T01:34:03.986Z,7.80
2022-11-16T01:37:05.603Z,7.60
2022-11-16T01:40:07.996Z,7.60
2022-11-16T01:43:16.661Z,7.60
2022-11-16T01:46:18.418Z,7.50
2022-11-16T01:49:21.698Z,7.50
2022-11-16T01:52:25.562Z,7.50
2022-11-16T01:55:27.808Z,7.60
2022-11-16T01:58:29.464Z,7.60
2022-11-16T02:01:31.156Z,7.80
2022-11-16T02:04:32.812Z,7.80
2022-11-16T02:08:22.976Z,8.00
2022-11-16T02:11:47.732Z,8.00
2022-11-16T02:14:59.597Z,8.10
2022-11-16T02:18:38.821Z,8.10
2022-11-16T02:21:45.313Z,8.10
2022-11-16T02:25:19.739Z,8.00
2022-11-16T02:28:43.798Z,8.00
2022-11-16T02:32:04.647Z,8.00
2022-11-16T02:35:08.077Z,8.00
2022-11-16T02:38:32.435Z,8.10
2022-11-16T02:41:35.512Z,8.20
2022-11-16T02:44:38.933Z,8.30
2022-11-16T02:47:40.702Z,8.40
2022-11-16T02:50:42.566Z,8.50
2022-11-16T02:54:11.472Z,8.50
2022-11-16T02:57:53.613Z,8.50
2022-11-16T03:01:34.636Z,8.50
2022-11-16T03:04:47.302Z,8.30
2022-11-16T03:07:52.690Z,8.20
2022-11-16T03:11:18.904Z,8.10
2022-11-16T03:14:22.792Z,8.10
2022-11-16T06:00:12.510Z,7.70
2022-11-16T06:03:14.188Z,7.80
2022-11-16T06:06:15.838Z,7.80
2022-11-16T06:09:17.505Z,7.90
2022-11-16T06:12:19.193Z,8.00
2022-11-16T06:15:21.086Z,8.00
2022-11-16T06:18:22.735Z,8.10
2022-11-16T06:21:24.510Z,8.10
2022-11-16T06:24:26.230Z,8.20
2022-11-16T06:27:27.889Z,8.20
2022-11-16T06:30:29.754Z,8.20
2022-11-16T06:33:33.779Z,8.20
2022-11-16T06:36:35.743Z,8.20
2022-11-16T06:39:37.502Z,8.30
2022-11-16T06:42:39.160Z,8.30
2022-11-16T06:45:40.809Z,8.30
2022-11-16T06:48:42.462Z,8.30
2022-11-16T06:51:44.355Z,8.40
2022-11-16T06:54:45.976Z,8.40
2022-11-16T06:57:47.679Z,8.40
2022-11-16T07:00:49.527Z,8.40
2022-11-16T07:03:51.166Z,8.40
2022-11-16T07:06:52.813Z,8.40
2022-11-16T07:09:55.007Z,8.40
2022-11-16T07:12:56.811Z,8.40
2022-11-16T07:16:05.805Z,8.40
2022-11-16T07:19:07.759Z,8.40
2022-11-16T07:22:09.642Z,8.40
2022-11-16T07:25:11.289Z,8.30
2022-11-16T07:28:12.966Z,8.30
2022-11-16T07:31:15.235Z,8.30
2022-11-16T07:34:16.997Z,8.30
2022-11-16T07:37:18.625Z,8.20
2022-11-16T07:40:20.642Z,8.30
2022-11-16T07:43:22.488Z,8.30
2022-11-16T07:49:48.378Z,8.30
2022-11-16T07:52:50.036Z,8.30
2022-11-16T07:55:53.555Z,8.40
2022-11-16T07:58:55.098Z,8.30
2022-11-16T08:01:57.078Z,8.30
2022-11-16T08:04:58.830Z,8.40
2022-11-16T08:08:00.480Z,8.40
2022-11-16T08:11:06.809Z,8.40
2022-11-16T08:14:08.453Z,8.50
2022-11-16T08:17:10.084Z,8.50
2022-11-16T08:20:12.243Z,8.60
2022-11-16T08:23:13.890Z,8.60
2022-11-16T08:26:16.971Z,8.60
2022-11-16T08:29:18.716Z,8.60
2022-11-16T08:32:20.380Z,8.70
2022-11-16T08:35:23.289Z,8.70
2022-11-16T08:38:28.247Z,8.70
2022-11-16T08:41:30.801Z,8.80
2022-11-16T08:44:32.440Z,8.80
2022-11-16T08:47:34.140Z,8.80
2022-11-16T08:50:55.518Z,8.80
2022-11-16T08:53:57.845Z,8.90
2022-11-16T08:56:59.514Z,8.90
2022-11-16T09:00:01.518Z,9.00
2022-11-16T09:03:03.248Z,9.00
2022-11-16T09:06:05.500Z,9.00
2022-11-16T09:09:07.281Z,9.00
2022-11-16T09:12:09.302Z,9.00
2022-11-16T09:15:10.949Z,9.00
2022-11-16T09:18:12.570Z,9.00
2022-11-16T09:21:19.019Z,9.00
2022-11-16T09:24:20.779Z,9.00
2022-11-16T09:27:22.685Z,9.00
2022-11-16T09:30:24.428Z,9.20
2022-11-16T09:33:26.105Z,9.20
2022-11-16T09:36:28.684Z,9.40
2022-11-16T09:39:32.494Z,9.50
2022-11-16T09:42:56.427Z,9.60
2022-11-16T09:46:14.314Z,9.80
2022-11-16T09:49:43.210Z,10.00
2022-11-16T09:52:46.440Z,10.00
2022-11-16T09:56:08.721Z,10.10
2022-11-16T09:59:25.960Z,10.10
2022-11-16T10:02:43.340Z,10.10
2022-11-16T10:06:03.803Z,10.00
2022-11-16T10:09:05.473Z,10.00
2022-11-16T10:12:17.456Z,10.00
2022-11-16T10:15:23.527Z,10.00
2022-11-16T10:18:49.469Z,10.00
2022-11-16T10:22:06.220Z,10.00
2022-11-16T10:25:18.440Z,10.00
2022-11-16T10:28:51.653Z,10.00
2022-11-16T10:32:08.784Z,10.00
2022-11-16T10:35:10.400Z,10.00
2022-11-16T10:38:14.153Z,10.10
2022-11-16T10:41:39.757Z,10.00
2022-11-16T10:44:46.092Z,10.00
2022-11-16T10:48:06.604Z,10.00
2022-11-16T10:51:09.246Z,10.10
2022-11-16T10:54:18.007Z,10.10
2022-11-16T10:57:19.761Z,10.20
2022-11-16T11:00:47.250Z,10.30
2022-11-16T11:03:51.051Z,10.50
2022-11-16T11:07:03.365Z,10.80
2022-11-16T11:10:26.787Z,11.10
2022-11-16T11:13:28.658Z,11.30
2022-11-16T11:16:30.362Z,11.30
2022-11-16T11:19:32.120Z,11.10
2022-11-16T11:22:35.120Z,11.00
2022-11-16T11:25:38.846Z,10.90
2022-11-16T11:28:47.809Z,10.70
2022-11-16T11:31:52.658Z,10.50
2022-11-16T11:34:54.521Z,10.40
2022-11-16T11:37:58.012Z,10.30
2022-11-16T11:41:00.585Z,10.50
2022-11-16T11:44:04.167Z,10.70
2022-11-16T11:47:57.200Z,10.90
2022-11-16T11:50:52.874Z,11.00
2022-11-16T11:53:58.807Z,11.10
2022-11-16T11:57:01.273Z,11.10
2022-11-16T12:00:03.882Z,11.10
2022-11-16T12:03:30.154Z,11.20
2022-11-16T12:06:44.267Z,11.30
2022-11-16T12:09:46.562Z,11.30
2022-11-16T12:12:54.929Z,11.30
2022-11-16T12:16:05.344Z,11.50
2022-11-16T12:19:10.125Z,11.50
2022-11-16T12:22:45.520Z,11.30
2022-11-16T12:25:56.468Z,11.20
2022-11-16T12:29:00.894Z,11.30
2022-11-16T12:32:31.218Z,11.30
2022-11-16T12:35:38.785Z,11.30
2022-11-16T12:39:12.825Z,11.20
2022-11-16T12:42:17.728Z,11.10
2022-11-16T12:45:36.056Z,11.10
2022-11-16T12:48:44.490Z,11.10
2022-11-16T12:52:05.557Z,11.50
2022-11-16T12:55:40.957Z,11.90
2022-11-16T12:58:51.906Z,12.00
2022-11-16T13:02:00.422Z,12.10
2022-11-16T13:05:12.240Z,12.00
2022-11-16T13:08:32.368Z,11.90
2022-11-16T13:11:47.760Z,11.70
2022-11-16T13:14:51.260Z,11.70
2022-11-16T13:17:55.597Z,11.50
2022-11-16T13:21:18.865Z,11.50
2022-11-16T13:24:32.963Z,11.50
2022-11-16T13:27:41.504Z,11.40
2022-11-16T13:30:57.107Z,11.40
2022-11-16T13:34:06.917Z,11.50
2022-11-16T13:37:36.448Z,11.60
2022-11-16T13:40:38.325Z,11.70
2022-11-16T13:43:47.639Z,11.80
2022-11-16T13:46:59.667Z,11.80
2022-11-16T13:50:06.123Z,11.70
2022-11-16T13:56:47.830Z,11.50
2022-11-16T13:59:50.625Z,11.40
2022-11-16T14:03:15.355Z,11.30
2022-11-16T14:06:19.974Z,11.30
2022-11-16T14:10:00.337Z,11.30
2022-11-16T14:13:04.255Z,11.20
2022-11-16T14:16:17.923Z,11.10
2022-11-16T14:19:44.824Z,11.10
2022-11-16T14:23:34.612Z,11.10
2022-11-16T14:26:48.826Z,11.10
2022-11-16T14:30:02.882Z,11.10
2022-11-16T14:33:04.496Z,11.00
2022-11-16T14:36:07.729Z,11.00
2022-11-16T14:39:28.373Z,10.90
2022-11-16T14:42:38.027Z,10.90
2022-11-16T14:46:03.225Z,10.80
2022-11-16T14:49:05.097Z,10.80
2022-11-16T14:52:08.263Z,10.70
2022-11-16T14:55:15.673Z,10.70
2022-11-16T14:58:18.161Z,10.70
2022-11-16T15:01:20.661Z,10.70
2022-11-16T15:04:23.490Z,10.60
2022-11-16T15:07:25.162Z,10.60
2022-11-16T15:10:28.020Z,10.60
2022-11-16T15:13:29.657Z,10.60
2022-11-16T15:16:31.333Z,10.50
2022-11-16T15:19:33.125Z,10.50
2022-11-16T15:22:41.906Z,10.50
2022-11-16T15:25:52.471Z,10.40
2022-11-16T15:28:55.225Z,10.40
2022-11-16T15:31:57.050Z,10.40
2022-11-16T15:35:03.959Z,10.40
2022-11-16T15:38:23.309Z,10.40
2022-11-16T15:41:25.502Z,10.40
2022-11-16T15:44:27.135Z,10.40
2022-11-16T15:47:28.805Z,10.40
2022-11-16T15:50:30.863Z,10.40
2022-11-16T15:53:38.459Z,10.30
2022-11-16T15:56:40.096Z,10.30
2022-11-16T15:59:41.761Z,10.30
2022-11-16T16:02:43.572Z,10.30
2022-11-16T16:05:45.399Z,10.30
2022-11-16T16:08:47.013Z,10.30
2022-11-16T16:11:48.953Z,10.20
2022-11-16T16:14:51.391Z,10.20
2022-11-16T16:17:53.684Z,10.20
2022-11-16T16:20:55.820Z,10.10
2022-11-16T16:23:57.501Z,10.10
2022-11-16T16:26:59.213Z,10.10
2022-11-16T16:30:03.767Z,10.10
2022-11-16T16:33:05.473Z,10.10
2022-11-16T16:36:07.981Z,10.10
2022-11-16T16:39:09.628Z,10.10
2022-11-16T16:42:15.736Z,10.10
2022-11-16T16:45:19.672Z,10.10
2022-11-16T16:48:21.298Z,10.10
2022-11-16T16:51:22.969Z,10.10
2022-11-16T16:54:25.316Z,10.20
2022-11-16T16:57:26.950Z,10.20
2022-11-16T17:00:29.188Z,10.20
2022-11-16T17:03:31.146Z,10.20
2022-11-16T17:06:33.492Z,10.30
2022-11-16T17:09:35.433Z,10.30
2022-11-16T17:12:37.053Z,10.30
2022-11-16T17:15:38.708Z,10.30
2022-11-16T17:18:40.369Z,10.30
2022-11-16T17:21:42.257Z,10.30
2022-11-16T17:24:43.923Z,10.30
2022-11-16T17:27:45.551Z,10.30
2022-11-16T17:30:47.347Z,10.30
2022-11-16T17:33:49.020Z,10.30
2022-11-16T17:36:50.736Z,10.30
2022-11-16T17:39:52.623Z,10.30
2022-11-16T17:42:54.341Z,10.20
2022-11-16T17:46:05.456Z,10.20
2022-11-16T17:49:07.097Z,10.20
2022-11-16T17:52:09.034Z,10.10
2022-11-16T17:55:10.648Z,10.10
2022-11-16T17:58:12.281Z,10.10
2022-11-16T18:01:14.205Z,10.10
2022-11-16T18:04:15.910Z,10.10
2022-11-16T18:07:17.616Z,10.10
2022-11-16T18:10:19.643Z,10.10
2022-11-16T18:13:21.274Z,10.10
2022-11-16T18:16:24.158Z,10.00
2022-11-16T18:19:26.136Z,10.00
2022-11-16T18:22:27.784Z,10.00
2022-11-16T18:25:29.435Z,10.00
2022-11-16T18:28:31.118Z,10.00
2022-11-16T18:31:36.851Z,10.00
2022-11-16T18:34:38.977Z,9.90
2022-11-16T18:37:40.841Z,9.90
2022-11-16T18:40:43.718Z,9.80
2022-11-16T18:43:56.302Z,9.80
2022-11-16T18:46:58.169Z,9.80
2022-11-16T18:50:00.095Z,9.80
2022-11-16T18:53:01.741Z,9.80
2022-11-16T18:56:03.537Z,9.80
2022-11-16T18:59:05.158Z,9.80
2022-11-16T19:02:06.850Z,9.70
2022-11-16T19:05:08.619Z,9.70
2022-11-16T19:08:10.344Z,9.70
2022-11-16T19:11:14.496Z,9.70
2022-11-16T19:14:16.143Z,9.70
2022-11-16T19:17:19.229Z,9.70
2022-11-16T19:20:21.163Z,9.70
2022-11-16T19:23:22.800Z,9.70
2022-11-16T19:26:26.112Z,9.70
2022-11-16T19:29:27.755Z,9.70
2022-11-16T19:32:31.871Z,9.70
2022-11-16T19:35:33.496Z,9.70
2022-11-16T19:38:35.341Z,9.70
2022-11-16T19:41:37.292Z,9.70
2022-11-16T19:44:38.961Z,9.80
2022-11-16T19:47:40.704Z,9.80
2022-11-16T19:50:42.583Z,9.80
2022-11-16T19:53:44.287Z,9.80
2022-11-16T19:56:49.288Z,9.80
2022-11-16T19:59:52.464Z,9.80
2022-11-16T20:02:57.525Z,9.80
2022-11-16T20:06:12.948Z,9.80
2022-11-16T20:09:14.663Z,9.80
2022-11-16T20:12:16.539Z,9.80
2022-11-16T20:15:18.202Z,9.70
2022-11-16T20:18:20.085Z,9.70
2022-11-16T20:21:23.502Z,9.60
2022-11-16T20:24:25.240Z,9.60
2022-11-16T20:27:26.884Z,9.60
2022-11-16T20:30:28.950Z,9.50
2022-11-16T20:33:31.825Z,9.50
2022-11-16T20:36:33.729Z,9.50
2022-11-16T20:39:36.063Z,9.50
2022-11-16T20:42:37.740Z,9.50
2022-11-16T20:45:39.369Z,9.50
2022-11-16T20:48:41.562Z,9.50
2022-11-16T20:51:43.609Z,9.50
2022-11-16T20:54:45.228Z,9.60
2022-11-16T20:57:46.845Z,9.60
2022-11-16T21:00:48.601Z,9.70
2022-11-16T21:03:50.245Z,9.80
2022-11-16T21:06:51.967Z,10.00
2022-11-16T21:10:12.564Z,10.10
2022-11-16T21:13:35.357Z,10.20
2022-11-16T21:16:37.265Z,10.30
2022-11-16T21:19:39.347Z,10.30
2022-11-16T21:22:41.001Z,10.40
2022-11-16T21:25:42.688Z,10.40
2022-11-16T21:28:47.093Z,10.40
2022-11-16T21:31:48.996Z,10.50
2022-11-16T21:34:50.646Z,10.50
2022-11-16T21:37:52.270Z,10.50
2022-11-16T21:40:53.993Z,10.50
2022-11-16T21:43:56.066Z,10.50
2022-11-16T21:46:57.689Z,10.50
2022-11-16T21:50:30.118Z,10.50
2022-11-16T21:53:21.209Z,10.50
2022-11-16T21:56:24.009Z,10.50
2022-11-16T21:59:25.678Z,10.40
2022-11-16T22:02:27.392Z,10.40
2022-11-16T22:05:47.353Z,10.40
2022-11-16T22:08:49.105Z,10.30
2022-11-16T22:11:51.045Z,10.40
2022-11-16T22:14:52.664Z,10.40
2022-11-16T22:17:54.330Z,10.40
2022-11-16T22:20:56.113Z,10.50
2022-11-16T22:23:58.101Z,10.50
2022-11-16T22:26:59.885Z,10.50
2022-11-16T22:30:01.612Z,10.50
2022-11-16T22:33:03.285Z,10.60
2022-11-16T22:36:05.500Z,10.60
2022-11-16T22:39:07.129Z,10.60
2022-11-16T22:42:09.071Z,10.70
2022-11-16T22:45:10.901Z,10.70
2022-11-16T22:48:12.692Z,10.80
2022-11-16T22:51:24.557Z,10.80
2022-11-16T22:54:28.787Z,10.90
